Time;durP1;ratioP1;P1;durP2;ratioP2;P2;SDS_P1;SDS_P2;PMS_P1;PMS_P2;Temp;Humidity;BMP_temperature;BMP_pressure;BME280_temperature;BME280_humidity;BME280_pressure;Samples;Min_cycle;Max_cycle;Signal;HPM_P1;HPM_P2
2022/05/25 00:00:45;;;;;;;;;2.25;1.25;;;;;12.70;100.00;101075.78;6310517;22;44825;-83
2022/05/25 00:03:11;;;;;;;;;3.00;3.00;;;;;12.68;100.00;101075.06;6322009;22;44835;-82
2022/05/25 00:05:37;;;;;;;;;2.50;2.50;;;;;12.66;100.00;101071.63;6309875;22;44795;-82
2022/05/25 00:08:04;;;;;;;;;4.80;3.20;;;;;12.67;100.00;101080.47;6278210;22;45366;-83
2022/05/25 00:10:29;;;;;;;;;3.20;2.20;;;;;12.66;100.00;101071.63;6278798;22;45388;-81
2022/05/25 00:12:55;;;;;;;;;3.25;1.75;;;;;12.69;100.00;101067.91;6308763;22;45191;-83
2022/05/25 00:15:20;;;;;;;;;3.75;2.00;;;;;12.68;100.00;101076.88;6283876;22;45345;-82
2022/05/25 00:17:47;;;;;;;;;1.50;1.50;;;;;12.68;100.00;101068.88;6311862;22;44843;-82
2022/05/25 00:20:12;;;;;;;;;2.40;2.40;;;;;12.65;100.00;101067.28;6281202;22;44625;-83
2022/05/25 00:22:47;;;;;;;;;2.00;2.00;;;;;12.64;100.00;101070.91;6313702;22;45221;-83
2022/05/25 00:25:25;;;;;;;;;2.00;2.00;;;;;12.61;100.00;101071.94;6316523;22;44772;-83
2022/05/25 00:27:50;;;;;;;;;5.50;5.50;;;;;12.58;100.00;101074.00;6312856;22;44911;-82
2022/05/25 00:30:17;;;;;;;;;4.75;3.75;;;;;12.54;100.00;101069.84;6311076;22;45379;-82
2022/05/25 00:32:43;;;;;;;;;2.00;2.00;;;;;12.49;100.00;101069.31;6311026;22;44658;-81
2022/05/25 00:35:15;;;;;;;;;4.00;2.80;;;;;12.47;100.00;101077.38;6306970;22;45174;-82
2022/05/25 00:37:41;;;;;;;;;1.40;1.40;;;;;12.45;100.00;101084.66;6305495;22;45399;-83
2022/05/25 00:40:10;;;;;;;;;2.00;1.00;;;;;12.44;100.00;101082.94;6280218;22;45139;-83
2022/05/25 00:42:36;;;;;;;;;1.80;1.80;;;;;12.42;100.00;101081.34;6280285;22;45164;-82
2022/05/25 00:45:05;;;;;;;;;1.50;1.50;;;;;12.41;100.00;101084.97;6305921;22;44927;-83
2022/05/25 00:47:33;;;;;;;;;2.00;2.00;;;;;12.38;100.00;101091.38;6278904;22;45334;-82
2022/05/25 00:49:58;;;;;;;;;3.80;1.80;;;;;12.34;100.00;101092.53;6305905;22;45298;-81
2022/05/25 00:52:26;;;;;;;;;3.00;1.75;;;;;12.31;100.00;101095.41;6309117;22;44700;-80
2022/05/25 00:54:59;;;;;;;;;2.25;1.00;;;;;12.29;100.00;101090.19;6334241;22;45209;-81
2022/05/25 00:57:30;;;;;;;;;1.80;1.80;;;;;12.28;100.00;101098.25;6285037;22;46548;-83
2022/05/25 01:00:18;;;;;;;;;1.20;0.80;;;;;12.29;100.00;101094.66;6310901;22;44763;-81
2022/05/25 01:02:59;;;;;;;;;1.80;1.80;;;;;12.30;100.00;101105.22;6308459;22;44882;-83
2022/05/25 01:05:57;;;;;;;;;1.00;1.00;;;;;12.28;100.00;101096.47;6314271;22;45555;-82
2022/05/25 01:08:51;;;;;;;;;0.80;0.80;;;;;12.29;100.00;101105.31;6148883;23;45479;-82
2022/05/25 01:11:32;;;;;;;;;3.80;2.00;;;;;12.27;100.00;101109.88;6140850;23;45336;-83
2022/05/25 01:14:15;;;;;;;;;2.00;2.00;;;;;12.25;100.00;101104.66;6124832;23;45470;-83
2022/05/25 01:16:46;;;;;;;;;3.40;1.40;;;;;12.24;100.00;101105.63;6124037;23;44922;-82
2022/05/25 01:19:42;;;;;;;;;1.80;1.80;;;;;12.26;100.00;101113.50;6149748;23;45136;-81
2022/05/25 01:22:26;;;;;;;;;2.00;2.00;;;;;12.27;100.00;101115.22;6151872;23;45426;-82
2022/05/25 01:24:58;;;;;;;;;2.40;2.00;;;;;12.26;100.00;101117.03;6184062;23;45399;-82
2022/05/25 01:27:45;;;;;;;;;2.20;2.20;;;;;12.29;100.00;101114.16;6185825;23;45338;-82
2022/05/25 01:30:22;;;;;;;;;2.20;2.20;;;;;12.32;100.00;101123.75;6166778;23;46719;-83
2022/05/25 01:32:52;;;;;;;;;4.00;2.80;;;;;12.33;100.00;101121.00;6191873;23;45307;-82
2022/05/25 01:35:53;;;;;;;;;4.00;2.00;;;;;12.32;100.00;101119.25;6200033;23;44793;-82
2022/05/25 01:38:40;;;;;;;;;2.25;2.25;;;;;12.32;100.00;101121.09;6138541;23;44856;-80
2022/05/25 01:41:12;;;;;;;;;1.80;1.80;;;;;12.33;100.00;101126.31;6182756;23;45402;-82
2022/05/25 01:43:44;;;;;;;;;3.60;2.20;;;;;12.35;100.00;101123.53;6183952;23;45438;-82
2022/05/25 01:46:24;;;;;;;;;2.60;2.60;;;;;12.35;100.00;101128.88;6294507;22;44739;-82
2022/05/25 01:48:53;;;;;;;;;2.00;2.00;;;;;12.35;100.00;101135.06;6306924;22;45261;-82
2022/05/25 01:51:31;;;;;;;;;1.00;1.00;;;;;12.37;100.00;101139.41;6309937;22;45251;-82
2022/05/25 01:54:04;;;;;;;;;3.00;1.80;;;;;12.39;100.00;101140.19;6313425;22;45285;-81
2022/05/25 01:56:34;;;;;;;;;1.80;1.80;;;;;12.39;100.00;101133.03;6309514;22;45435;-82
2022/05/25 01:59:05;;;;;;;;;1.60;1.60;;;;;12.40;100.00;101136.56;6279945;22;45440;-81
2022/05/25 02:01:31;;;;;;;;;1.40;1.40;;;;;12.41;100.00;101138.25;6280044;22;48343;-81
2022/05/25 02:06:56;;;;;;;;;1.80;1.80;;;;;12.40;100.00;101140.06;6316050;22;44748;-82
2022/05/25 02:09:46;;;;;;;;;0.80;0.80;;;;;12.41;100.00;101144.44;6307449;22;45240;-81
2022/05/25 02:12:40;;;;;;;;;1.40;1.40;;;;;12.41;100.00;101143.59;6307953;22;45402;-83
2022/05/25 02:15:34;;;;;;;;;1.20;1.20;;;;;12.37;100.00;101152.75;6309444;22;45330;-81
2022/05/25 02:18:11;;;;;;;;;1.00;1.00;;;;;12.31;100.00;101148.69;6308079;22;45088;-82
2022/05/25 02:20:58;;;;;;;;;1.00;1.00;;;;;12.26;100.00;101153.47;6315222;22;45152;-81
2022/05/25 02:23:53;;;;;;;;;1.80;1.80;;;;;12.20;100.00;101154.75;6305902;22;44970;-81
2022/05/25 02:26:29;;;;;;;;;1.60;1.60;;;;;12.16;100.00;101155.06;6256475;22;44770;-82
2022/05/25 02:29:09;;;;;;;;;3.20;3.20;;;;;12.14;100.00;101160.50;6314855;22;45360;-80
2022/05/25 02:31:42;;;;;;;;;2.00;2.00;;;;;12.14;100.00;101156.97;6283127;22;44847;-82
2022/05/25 02:34:12;;;;;;;;;2.00;1.80;;;;;12.13;100.00;101156.09;6315704;22;45220;-81
2022/05/25 02:36:39;;;;;;;;;3.40;1.80;;;;;12.10;100.00;101158.97;6325521;22;44809;-82
2022/05/25 02:39:07;;;;;;;;;2.00;2.00;;;;;12.06;100.00;101157.47;6317627;22;44767;-84
2022/05/25 02:41:35;;;;;;;;;1.00;1.00;;;;;12.01;100.00;101157.78;6279821;22;45188;-82
2022/05/25 02:44:03;;;;;;;;;0.80;0.80;;;;;11.99;100.00;101158.81;6312181;22;45296;-83
2022/05/25 02:46:29;;;;;;;;;2.20;2.20;;;;;11.98;100.00;101165.97;6310316;22;45325;-82
2022/05/25 02:48:55;;;;;;;;;0.80;0.80;;;;;11.95;100.00;101174.16;6315500;22;44689;-82
2022/05/25 02:51:20;;;;;;;;;1.75;1.75;;;;;11.96;100.00;101173.19;6307329;22;45431;-82
2022/05/25 02:53:46;;;;;;;;;1.25;1.25;;;;;11.97;100.00;101174.91;6309974;22;45245;-83
2022/05/25 02:56:12;;;;;;;;;1.00;1.00;;;;;11.97;100.00;101174.91;6310143;22;45206;-82
2022/05/25 02:58:37;;;;;;;;;2.00;2.00;;;;;11.97;100.00;101179.38;6306599;22;44732;-83
2022/05/25 03:01:03;;;;;;;;;2.00;2.00;;;;;11.97;100.00;101174.91;6276494;22;44916;-83
2022/05/25 03:03:33;;;;;;;;;4.00;2.00;;;;;11.97;100.00;101180.22;6312562;22;45365;-83
2022/05/25 03:05:58;;;;;;;;;2.00;2.00;;;;;11.97;100.00;101184.72;6318033;22;45327;-82
2022/05/25 03:08:24;;;;;;;;;2.25;2.25;;;;;11.96;100.00;101185.66;6320343;22;45129;-83
2022/05/25 03:10:49;;;;;;;;;2.50;2.50;;;;;11.92;100.00;101187.66;6313714;22;45450;-82
2022/05/25 03:13:15;;;;;;;;;3.00;1.75;;;;;11.93;100.00;101194.69;6311193;22;45611;-81
2022/05/25 03:15:40;;;;;;;;;2.25;2.25;;;;;11.94;100.00;101185.78;6283743;22;44774;-82
2022/05/25 03:18:06;;;;;;;;;2.00;2.00;;;;;11.95;100.00;101200.78;6313239;22;45436;-83
2022/05/25 03:20:33;;;;;;;;;6.00;4.25;;;;;11.94;100.00;101207.06;6305980;22;45172;-83
2022/05/25 03:22:58;;;;;;;;;3.80;2.00;;;;;11.93;100.00;101202.69;6306462;22;45239;-81
2022/05/25 03:25:24;;;;;;;;;3.00;2.00;;;;;11.94;100.00;101209.75;6325858;22;45160;-82
2022/05/25 03:27:50;;;;;;;;;1.75;1.75;;;;;11.91;100.00;101203.75;6309230;22;45199;-83
2022/05/25 03:30:19;;;;;;;;;2.00;2.00;;;;;11.91;100.00;101212.59;6306536;22;45348;-83
2022/05/25 03:32:44;;;;;;;;;2.75;2.75;;;;;11.91;100.00;101222.38;6305772;22;45265;-83
2022/05/25 03:35:10;;;;;;;;;2.25;2.25;;;;;11.89;100.00;101222.47;6306771;22;45296;-82
2022/05/25 03:37:37;;;;;;;;;4.50;3.75;;;;;11.89;100.00;101221.63;6313214;22;44736;-82
2022/05/25 03:40:09;;;;;;;;;3.00;2.25;;;;;11.86;100.00;101217.34;6313577;22;44776;-83
2022/05/25 03:42:35;;;;;;;;;3.00;3.00;;;;;11.87;100.00;101215.53;6315246;22;45024;-84
2022/05/25 03:45:04;;;;;;;;;3.00;3.00;;;;;11.85;100.00;101228.13;6313105;22;45229;-83
2022/05/25 03:47:31;;;;;;;;;3.40;2.80;;;;;11.84;100.00;101229.91;6309250;22;45412;-82
2022/05/25 03:49:56;;;;;;;;;2.75;2.75;;;;;11.81;100.00;101236.25;6306568;22;44814;-83
2022/05/25 03:52:23;;;;;;;;;4.00;3.75;;;;;11.83;100.00;101247.69;6309479;22;45214;-83
2022/05/25 03:54:49;;;;;;;;;3.00;3.00;;;;;11.83;100.00;101250.34;6314628;22;44760;-83
2022/05/25 03:57:14;;;;;;;;;3.20;3.20;;;;;11.86;100.00;101259.09;6311061;22;45273;-83
2022/05/25 03:59:40;;;;;;;;;1.00;1.00;;;;;11.89;100.00;101269.53;6279596;22;45538;-82
2022/05/25 04:02:05;;;;;;;;;4.00;3.00;;;;;11.91;100.00;101267.66;6310859;22;47095;-82
2022/05/25 04:04:31;;;;;;;;;6.25;2.00;;;;;11.91;100.00;101262.31;6311669;22;44737;-84
2022/05/25 04:06:56;;;;;;;;;3.50;3.50;;;;;11.94;100.00;101270.09;6311722;22;44726;-83
2022/05/25 04:09:22;;;;;;;;;3.00;3.00;;;;;11.96;100.00;101260.22;6315864;22;44800;-82
2022/05/25 04:11:48;;;;;;;;;4.00;3.25;;;;;11.97;100.00;101259.25;6308585;22;46089;-83
2022/05/25 04:14:15;;;;;;;;;3.20;3.20;;;;;11.97;100.00;101257.44;6314848;22;45096;-82
2022/05/25 04:16:41;;;;;;;;;3.00;3.00;;;;;11.99;100.00;101266.22;6307622;22;45290;-83
2022/05/25 04:19:07;;;;;;;;;3.00;3.00;;;;;12.00;100.00;101265.25;6277100;22;44892;-82
2022/05/25 04:21:32;;;;;;;;;3.25;3.25;;;;;12.01;100.00;101263.44;6277579;22;45202;-81
2022/05/25 04:23:58;;;;;;;;;3.50;3.25;;;;;12.04;100.00;101269.44;6305495;22;45294;-82
2022/05/25 04:26:23;;;;;;;;;3.75;3.75;;;;;12.05;100.00;101262.28;6305577;22;45291;-84
2022/05/25 04:28:49;;;;;;;;;6.50;3.50;;;;;12.08;100.00;101268.25;6305490;22;44720;-82
2022/05/25 04:31:14;;;;;;;;;4.00;4.00;;;;;12.11;100.00;101269.88;6304954;22;45305;-82
2022/05/25 04:33:40;;;;;;;;;3.25;3.25;;;;;12.13;100.00;101273.28;6306965;22;45254;-82
2022/05/25 04:36:06;;;;;;;;;4.40;4.40;;;;;12.15;100.00;101278.53;6307660;22;45313;-83
2022/05/25 04:38:32;;;;;;;;;4.25;4.25;;;;;12.15;100.00;101279.38;6309230;22;44861;-82
2022/05/25 04:40:57;;;;;;;;;5.50;5.50;;;;;12.19;100.00;101296.03;6312226;22;44850;-82
2022/05/25 04:43:24;;;;;;;;;3.00;3.00;;;;;12.20;100.00;101297.72;6314507;22;45316;-82
2022/05/25 04:45:51;;;;;;;;;3.80;3.80;;;;;12.23;100.00;101289.53;6313674;22;44600;-82
2022/05/25 04:48:21;;;;;;;;;6.00;5.25;;;;;12.29;100.00;101294.47;6312231;22;45369;-82
2022/05/25 04:50:47;;;;;;;;;5.00;5.00;;;;;12.42;100.00;101300.69;6308566;22;45318;-84
2022/05/25 04:53:16;;;;;;;;;5.80;2.60;;;;;12.62;100.00;101299.41;6307222;22;44766;-83
2022/05/25 04:58:27;;;;;;;;;3.25;3.25;;;;;13.10;100.00;101294.34;6306961;22;44772;-84
2022/05/25 05:00:53;;;;;;;;;7.00;4.00;;;;;13.32;100.00;101294.63;6307088;22;45333;-82
2022/05/25 05:03:21;;;;;;;;;7.00;6.00;;;;;13.53;100.00;101300.25;6306695;22;45256;-84
2022/05/25 05:05:47;;;;;;;;;3.40;3.40;;;;;13.75;100.00;101306.78;6307136;22;44648;-83
2022/05/25 05:08:13;;;;;;;;;4.60;3.00;;;;;13.99;100.00;101302.34;6307131;22;45092;-83
2022/05/25 05:10:39;;;;;;;;;5.75;4.25;;;;;14.22;100.00;101306.03;6315483;22;44992;-83
2022/05/25 05:13:07;;;;;;;;;4.00;4.00;;;;;14.49;100.00;101308.50;6317786;22;44654;-83
2022/05/25 05:15:36;;;;;;;;;5.20;5.20;;;;;14.75;100.00;101305.72;6313633;22;45220;-84
2022/05/25 05:18:02;;;;;;;;;4.80;3.40;;;;;15.05;100.00;101302.53;6311293;22;45186;-84
2022/05/25 05:20:28;;;;;;;;;4.00;4.00;;;;;15.33;100.00;101302.09;6312094;22;44839;-83
2022/05/25 05:22:57;;;;;;;;;10.40;4.00;;;;;15.34;100.00;101303.78;6314119;22;45369;-83
2022/05/25 05:25:23;;;;;;;;;3.40;3.40;;;;;15.41;100.00;101309.50;6280679;22;45237;-83
2022/05/25 05:27:48;;;;;;;;;2.00;2.00;;;;;15.46;100.00;101312.69;6281033;22;44843;-84
2022/05/25 05:30:18;;;;;;;;;2.25;2.25;;;;;15.37;100.00;101318.75;6309622;22;45178;-83
2022/05/25 05:32:44;;;;;;;;;3.80;3.80;;;;;15.49;100.00;101312.44;6308081;22;44700;-84
2022/05/25 05:35:10;;;;;;;;;4.00;4.00;;;;;15.64;100.00;101311.28;6308955;22;44664;-84
2022/05/25 05:37:41;;;;;;;;;2.40;2.40;;;;;15.58;100.00;101311.72;6310059;22;45646;-83
2022/05/25 05:40:09;;;;;;;;;3.40;3.40;;;;;15.78;100.00;101317.38;6316895;22;45226;-83
2022/05/25 05:42:39;;;;;;;;;4.80;4.00;;;;;15.86;100.00;101314.94;6288258;22;44820;-83
2022/05/25 05:45:12;;;;;;;;;4.00;3.20;;;;;15.79;100.00;101303.84;6310473;22;45278;-82
2022/05/25 05:47:44;;;;;;;;;2.40;2.40;;;;;15.87;100.00;101306.78;6306790;22;45254;-83
2022/05/25 05:50:11;;;;;;;;;3.40;3.40;;;;;15.41;100.00;101301.47;6283378;22;46054;-83
2022/05/25 05:52:36;;;;;;;;;3.20;2.00;;;;;15.50;100.00;101299.91;6310579;22;44776;-81
2022/05/25 05:55:04;;;;;;;;;3.25;2.00;;;;;15.73;100.00;101307.00;6308889;22;44771;-84
2022/05/25 05:57:29;;;;;;;;;2.20;2.00;;;;;16.07;100.00;101310.53;6311108;22;44946;-84
2022/05/25 05:59:55;;;;;;;;;1.25;1.25;;;;;16.35;100.00;101308.28;6308839;22;45137;-84
2022/05/25 06:02:20;;;;;;;;;4.00;2.50;;;;;16.42;100.00;101306.78;6310214;22;44752;-82
2022/05/25 06:04:46;;;;;;;;;2.00;2.00;;;;;16.29;100.00;101311.44;6313206;22;44770;-84
2022/05/25 06:07:11;;;;;;;;;3.25;2.75;;;;;16.30;100.00;101313.16;6316045;22;45237;-83
2022/05/25 06:09:37;;;;;;;;;3.00;3.00;;;;;16.48;100.00;101310.78;6316288;22;44831;-82
2022/05/25 06:12:02;;;;;;;;;3.00;3.00;;;;;16.77;100.00;101317.28;6315714;22;45194;-83
2022/05/25 06:14:28;;;;;;;;;2.25;2.25;;;;;16.82;100.00;101327.63;6310655;22;44685;-84
2022/05/25 06:19:38;;;;;;;;;3.00;3.00;;;;;16.79;100.00;101322.53;6306065;22;45005;-83
2022/05/25 06:22:10;;;;;;;;;3.75;1.50;;;;;16.89;100.00;101327.00;6252970;22;45251;-84
2022/05/25 06:24:39;;;;;;;;;4.00;2.60;;;;;16.91;100.00;101333.09;6306114;22;44701;-85
2022/05/25 06:27:08;;;;;;;;;1.00;1.00;;;;;16.89;100.00;101348.47;6306455;22;45238;-84
2022/05/25 06:29:35;;;;;;;;;1.00;1.00;;;;;16.73;100.00;101349.88;6309993;22;45143;-84
2022/05/25 06:32:00;;;;;;;;;1.00;1.00;;;;;16.48;100.00;101353.69;6283562;22;45342;-84
2022/05/25 06:34:26;;;;;;;;;3.75;2.00;;;;;16.45;100.00;101352.97;6308089;22;45202;-85
2022/05/25 06:36:51;;;;;;;;;1.75;1.75;;;;;16.43;100.00;101362.13;6309428;22;44805;-83
2022/05/25 06:39:17;;;;;;;;;3.00;1.25;;;;;16.41;100.00;101353.34;6314068;22;45362;-84
2022/05/25 06:41:42;;;;;;;;;1.50;1.25;;;;;16.60;100.00;101360.75;6312607;22;45161;-83
2022/05/25 06:44:08;;;;;;;;;1.00;1.00;;;;;16.79;100.00;101363.66;6314533;22;45417;-83
2022/05/25 06:46:33;;;;;;;;;1.00;1.00;;;;;16.63;100.00;101361.34;6306851;22;45326;-85
2022/05/25 06:48:58;;;;;;;;;1.00;1.00;;;;;16.49;100.00;101372.38;6309229;22;44941;-84
2022/05/25 06:51:27;;;;;;;;;2.00;2.00;;;;;16.69;100.00;101371.56;6282903;22;45416;-84
2022/05/25 06:53:53;;;;;;;;;2.00;2.00;;;;;16.75;100.00;101378.28;6281479;22;45380;-83
2022/05/25 06:56:19;;;;;;;;;2.00;2.00;;;;;16.35;100.00;101381.53;6315614;22;44818;-83
2022/05/25 06:58:45;;;;;;;;;1.00;1.00;;;;;16.47;100.00;101385.03;6314786;22;44993;-84
2022/05/25 07:01:11;;;;;;;;;4.40;2.40;;;;;16.48;100.00;101384.03;6314279;22;44702;-84
2022/05/25 07:03:38;;;;;;;;;2.75;2.75;;;;;16.49;100.00;101383.09;6311585;22;45258;-84
2022/05/25 07:06:08;;;;;;;;;1.20;1.20;;;;;16.62;100.00;101390.97;6313358;22;45142;-83
2022/05/25 07:08:34;;;;;;;;;4.60;2.00;;;;;16.61;100.00;101395.50;6317439;22;45281;-83
2022/05/25 07:11:00;;;;;;;;;4.00;4.00;;;;;16.43;100.00;101400.50;6312120;22;45435;-84
2022/05/25 07:13:27;;;;;;;;;3.75;2.50;;;;;16.56;100.00;101392.34;6315259;22;45234;-83
2022/05/25 07:16:01;;;;;;;;;2.20;1.00;;;;;16.87;100.00;101381.78;6310598;22;45207;-84
2022/05/25 07:18:27;;;;;;;;;1.00;1.00;;;;;16.72;100.00;101383.06;6308707;22;45013;-83
2022/05/25 07:20:53;;;;;;;;;1.00;1.00;;;;;16.63;100.00;101393.56;6311843;22;45316;-83
2022/05/25 07:23:19;;;;;;;;;2.25;1.50;;;;;17.17;100.00;101392.66;6279794;22;44776;-84
2022/05/25 07:25:46;;;;;;;;;4.00;4.00;;;;;16.90;100.00;101393.13;6308761;22;44832;-83
2022/05/25 07:28:11;;;;;;;;;0.60;0.60;;;;;16.80;100.00;101402.06;6308832;22;45328;-81
2022/05/25 07:30:37;;;;;;;;;2.00;1.00;;;;;16.96;100.00;101415.91;6297359;22;44684;-82
2022/05/25 07:33:02;;;;;;;;;1.00;1.00;;;;;17.01;100.00;101420.91;6313949;22;45250;-82
2022/05/25 07:35:28;;;;;;;;;0.00;0.00;;;;;16.90;100.00;101417.28;6319381;22;44746;-83
2022/05/25 07:37:55;;;;;;;;;0.00;0.00;;;;;16.51;100.00;101417.81;6320305;22;45301;-84
2022/05/25 07:40:39;;;;;;;;;1.00;1.00;;;;;16.67;100.00;101419.13;6310879;22;44685;-83
2022/05/25 07:43:13;;;;;;;;;2.00;0.40;;;;;16.77;100.00;101423.78;6311326;22;45223;-84
2022/05/25 07:45:39;;;;;;;;;2.40;0.40;;;;;16.70;100.00;101418.03;6306916;22;45187;-84
2022/05/25 07:48:05;;;;;;;;;2.00;1.00;;;;;16.22;100.00;101430.91;6278202;22;46824;-83
2022/05/25 07:50:32;;;;;;;;;1.00;1.00;;;;;16.26;100.00;101438.56;6309093;22;44749;-84
2022/05/25 07:52:59;;;;;;;;;2.40;1.00;;;;;16.39;100.00;101420.53;6308877;22;45277;-84
2022/05/25 07:55:24;;;;;;;;;0.00;0.00;;;;;16.25;100.00;101433.34;6280298;22;44909;-83
2022/05/25 07:57:50;;;;;;;;;2.00;0.00;;;;;16.27;100.00;101424.19;6307473;22;45349;-82
2022/05/25 08:00:17;;;;;;;;;1.00;1.00;;;;;16.58;100.00;101427.06;6309426;22;44640;-83
2022/05/25 08:05:43;;;;;;;;;0.20;0.20;;;;;16.57;100.00;101442.31;6319306;22;44578;-84
2022/05/25 08:08:13;;;;;;;;;0.00;0.00;;;;;16.61;100.00;101443.78;6314574;22;45083;-83
2022/05/25 08:10:40;;;;;;;;;1.00;1.00;;;;;16.61;100.00;101441.09;6314169;22;44737;-83
2022/05/25 08:13:06;;;;;;;;;0.00;0.00;;;;;16.52;100.00;101439.16;6286973;22;45216;-82
2022/05/25 08:15:33;;;;;;;;;1.00;1.00;;;;;16.58;100.00;101445.84;6314943;22;44729;-82
2022/05/25 08:17:59;;;;;;;;;2.00;0.00;;;;;16.99;100.00;101445.19;6318337;22;45246;-84
2022/05/25 08:20:26;;;;;;;;;1.20;0.80;;;;;17.13;100.00;101442.22;6310407;22;44684;-84
2022/05/25 08:22:51;;;;;;;;;0.00;0.00;;;;;16.72;100.00;101448.28;6306749;22;45245;-84
2022/05/25 08:25:19;;;;;;;;;0.00;0.00;;;;;16.66;100.00;101438.88;6305794;22;44816;-82
2022/05/25 08:27:44;;;;;;;;;1.00;1.00;;;;;16.78;100.00;101439.78;6280403;22;45662;-83
2022/05/25 08:30:13;;;;;;;;;1.00;1.00;;;;;17.20;100.00;101438.03;6279884;22;45168;-85
2022/05/25 08:32:39;;;;;;;;;0.20;0.20;;;;;17.07;100.00;101433.84;6308752;22;45311;-82
2022/05/25 08:35:06;;;;;;;;;1.00;1.00;;;;;16.78;100.00;101438.88;6309971;22;45352;-85
2022/05/25 08:37:31;;;;;;;;;0.00;0.00;;;;;16.74;100.00;101432.94;6286902;22;46615;-84
2022/05/25 08:39:56;;;;;;;;;1.25;0.50;;;;;17.27;100.00;101433.00;6307380;22;45387;-83
2022/05/25 08:42:25;;;;;;;;;1.50;0.75;;;;;17.67;100.00;101437.69;6280000;22;45286;-84
2022/05/25 08:44:55;;;;;;;;;0.80;0.00;;;;;17.59;100.00;101429.41;6306371;22;45289;-83
2022/05/25 08:47:21;;;;;;;;;0.40;0.40;;;;;17.41;100.00;101438.06;6311810;22;45300;-84
2022/05/25 08:49:49;;;;;;;;;0.00;0.00;;;;;17.08;100.00;101440.91;6311272;22;45369;-83
2022/05/25 08:52:32;;;;;;;;;0.00;0.00;;;;;17.24;100.00;101444.00;6306834;22;45363;-83
2022/05/25 08:55:04;;;;;;;;;1.00;1.00;;;;;17.67;100.00;101443.06;6285793;22;44873;-83
2022/05/25 08:57:51;;;;;;;;;0.00;0.00;;;;;18.03;100.00;101439.03;6310778;22;44993;-83
2022/05/25 09:00:19;;;;;;;;;0.00;0.00;;;;;17.94;100.00;101445.25;6304103;22;45390;-84
2022/05/25 09:02:57;;;;;;;;;0.60;0.00;;;;;17.79;100.00;101455.44;6285799;22;44797;-83
2022/05/25 09:05:34;;;;;;;;;0.00;0.00;;;;;17.87;98.43;101444.06;6313387;22;45115;-83
2022/05/25 09:08:03;;;;;;;;;0.00;0.00;;;;;18.09;98.18;101454.66;6312005;22;45408;-84
2022/05/25 09:10:36;;;;;;;;;0.00;0.00;;;;;18.24;97.70;101456.00;6313019;22;44756;-84
2022/05/25 09:13:12;;;;;;;;;0.00;0.00;;;;;17.95;93.75;101469.28;6307655;22;45281;-84
2022/05/25 09:16:15;;;;;;;;;0.00;0.00;;;;;17.98;95.02;101455.56;6307004;22;44670;-84
2022/05/25 09:18:33;;;;;;;;;0.00;0.00;;;;;17.68;85.25;101450.97;6288643;22;45182;-84
2022/05/25 09:21:02;;;;;;;;;0.00;0.00;;;;;17.63;87.35;101460.41;6312745;22;45218;-83
2022/05/25 09:23:28;;;;;;;;;0.00;0.00;;;;;17.47;90.22;101460.88;6308955;22;45428;-84
2022/05/25 09:25:56;;;;;;;;;0.00;0.00;;;;;17.48;86.92;101463.41;6309378;22;45157;-84
2022/05/25 09:28:35;;;;;;;;;1.20;0.00;;;;;17.39;84.36;101461.50;6309312;22;45023;-84
2022/05/25 09:31:02;;;;;;;;;0.00;0.00;;;;;17.48;87.14;101454.50;6280124;22;44768;-84
2022/05/25 09:33:48;;;;;;;;;0.40;0.00;;;;;17.73;86.04;101456.00;6308274;22;44761;-84
2022/05/25 09:36:19;;;;;;;;;0.00;0.00;;;;;17.92;80.71;101453.41;6295587;22;44828;-83
2022/05/25 09:39:04;;;;;;;;;0.00;0.00;;;;;17.86;82.48;101451.28;6306845;22;45340;-83
2022/05/25 09:41:34;;;;;;;;;1.20;0.00;;;;;18.14;81.97;101446.19;6309820;22;44718;-84
2022/05/25 09:44:03;;;;;;;;;0.00;0.00;;;;;18.12;73.13;101467.81;6282785;22;44681;-83
2022/05/25 09:46:36;;;;;;;;;0.00;0.00;;;;;18.18;77.98;101461.94;6308860;22;45210;-83
2022/05/25 09:49:06;;;;;;;;;0.00;0.00;;;;;18.01;70.54;101462.53;6284026;22;45421;-84
2022/05/25 09:51:36;;;;;;;;;0.40;0.00;;;;;18.03;74.37;101462.38;6288152;22;44780;-85
2022/05/25 09:54:18;;;;;;;;;0.00;0.00;;;;;17.99;75.77;101461.81;6308447;22;45242;-85
2022/05/25 09:56:53;;;;;;;;;0.00;0.00;;;;;17.72;76.97;101456.94;6309715;22;44789;-84
2022/05/25 09:59:42;;;;;;;;;0.60;0.00;;;;;17.78;80.11;101463.66;6310267;22;45242;-84
2022/05/25 10:02:42;;;;;;;;;0.00;0.00;;;;;17.67;82.77;101465.41;6314401;22;45320;-84
2022/05/25 10:05:15;;;;;;;;;0.00;0.00;;;;;18.19;84.58;101473.53;6317362;22;44721;-84
2022/05/25 10:08:08;;;;;;;;;0.00;0.00;;;;;18.05;83.28;101480.09;6308654;22;44744;-85
2022/05/25 10:10:43;;;;;;;;;2.20;0.00;;;;;18.18;80.61;101467.31;6308440;22;45378;-84
2022/05/25 10:13:19;;;;;;;;;0.00;0.00;;;;;18.23;81.96;101472.28;6315588;22;44804;-84
2022/05/25 10:15:51;;;;;;;;;0.40;0.40;;;;;18.29;81.02;101466.34;6316651;22;45096;-85
2022/05/25 10:18:31;;;;;;;;;0.00;0.00;;;;;18.61;80.26;101460.78;6315152;22;44955;-84
2022/05/25 10:20:57;;;;;;;;;0.00;0.00;;;;;18.83;75.95;101459.75;6315324;22;45181;-84
2022/05/25 10:23:25;;;;;;;;;0.00;0.00;;;;;18.50;72.25;101466.28;6311609;22;44634;-82
2022/05/25 10:25:54;;;;;;;;;0.00;0.00;;;;;18.31;76.09;101475.13;6311466;22;45404;-85
2022/05/25 10:28:35;;;;;;;;;0.20;0.20;;;;;18.20;80.46;101464.47;6308720;22;45301;-84
2022/05/25 10:37:06;;;;;;;;;0.00;0.00;;;;;18.60;85.09;101469.84;6307366;22;45217;-85
2022/05/25 10:39:41;;;;;;;;;0.00;0.00;;;;;18.81;79.80;101466.25;6306978;22;44768;-85
2022/05/25 10:42:25;;;;;;;;;0.00;0.00;;;;;18.86;73.85;101469.41;6307918;22;45274;-84
2022/05/25 10:44:59;;;;;;;;;0.40;0.00;;;;;18.70;78.40;101469.91;6281185;22;45403;-84
2022/05/25 10:47:28;;;;;;;;;1.20;0.00;;;;;18.93;79.85;101470.56;6306683;22;45376;-85
2022/05/25 10:49:53;;;;;;;;;0.00;0.00;;;;;18.59;78.95;101475.38;6310259;22;44653;-84
2022/05/25 10:52:28;;;;;;;;;0.00;0.00;;;;;18.41;80.37;101464.41;6288951;22;46589;-84
2022/05/25 10:54:56;;;;;;;;;0.00;0.00;;;;;18.56;79.10;101464.88;6311226;22;44694;-85
2022/05/25 10:57:58;;;;;;;;;0.50;0.00;;;;;18.93;79.39;101455.25;6308081;22;44767;-84
2022/05/25 11:00:24;;;;;;;;;0.00;0.00;;;;;19.36;72.75;101464.78;6310831;22;44748;-85
2022/05/25 11:03:14;;;;;;;;;0.00;0.00;;;;;19.64;71.20;101452.31;6284445;22;46682;-84
2022/05/25 11:05:52;;;;;;;;;0.00;0.00;;;;;19.95;67.20;101452.94;6308745;22;45285;-86
2022/05/25 11:08:21;;;;;;;;;0.00;0.00;;;;;20.06;66.79;101454.63;6309653;22;45420;-86
2022/05/25 11:11:01;;;;;;;;;0.00;0.00;;;;;19.49;61.78;101472.59;6308594;22;45311;-84
2022/05/25 11:13:48;;;;;;;;;0.00;0.00;;;;;19.54;62.14;101456.84;6308966;22;45256;-85
2022/05/25 11:17:02;;;;;;;;;0.00;0.00;;;;;19.63;68.56;101468.59;6308843;22;44796;-84
2022/05/25 11:19:27;;;;;;;;;0.00;0.00;;;;;19.95;71.41;101461.03;6261144;22;44749;-84
2022/05/25 11:22:15;;;;;;;;;0.00;0.00;;;;;19.95;66.84;101460.19;6291967;22;44797;-84
2022/05/25 11:25:02;;;;;;;;;0.80;0.00;;;;;19.94;64.04;101466.59;6289843;22;45238;-84
2022/05/25 11:27:33;;;;;;;;;0.20;0.00;;;;;20.17;64.74;101478.72;6311317;22;45386;-84
2022/05/25 11:30:18;;;;;;;;;1.00;0.00;;;;;20.08;66.08;101471.53;6312679;22;44768;-83
2022/05/25 11:32:59;;;;;;;;;1.60;0.00;;;;;20.26;64.83;101468.91;6314937;22;45334;-83
2022/05/25 11:35:27;;;;;;;;;0.60;0.00;;;;;20.48;64.01;101452.34;6308700;22;44903;-84
2022/05/25 11:38:25;;;;;;;;;0.00;0.00;;;;;20.61;59.91;101461.97;6306797;22;44756;-84
2022/05/25 11:41:20;;;;;;;;;1.00;0.00;;;;;20.10;60.17;101471.38;6281858;22;45516;-85
2022/05/25 11:43:59;;;;;;;;;0.00;0.00;;;;;20.06;58.81;101472.66;6310778;22;45246;-84
2022/05/25 11:46:43;;;;;;;;;2.00;1.00;;;;;19.58;62.60;101443.91;6310875;22;45229;-85
2022/05/25 11:49:31;;;;;;;;;1.00;0.00;;;;;19.86;63.76;101469.16;6318437;22;44876;-83
2022/05/25 11:52:27;;;;;;;;;0.00;0.00;;;;;19.91;62.10;101453.38;6319397;22;45230;-84
2022/05/25 11:55:08;;;;;;;;;0.60;0.00;;;;;20.34;60.69;101476.25;6319577;22;45121;-86